Terminal Aerodrome Forecast
Issued by NWS

Home | Current Version | Previous Version | Text Only | Print | Product List | Glossary On
Versions: 1 2 3 4 5 6 7 8 9 10 11 12 13 14 15
000
FTAK31 PAFA 190540
TAFABT
TAF
PABT 190540Z 1906/2006 04007KT P6SM BKN050 BKN100
     FM191000 35003KT P6SM SCT050 BKN120
     FM192100 03006KT P6SM VCSH SCT060 BKN120
     FM200400 35005KT P6SM FEW060 SCT120=

USA.gov is the U.S. government's official web portal to all federal, state and local government web resources and services.